sensor_id;sensor_type;location;lat;lon;timestamp;P1;durP1;ratioP1;P2;durP2;ratioP2
18503;SDS011;9381;54.244;10.074;2023-02-15T00:03:05;79.90;;;36.77;;
18503;SDS011;9381;54.244;10.074;2023-02-15T00:08:06;77.43;;;35.10;;
18503;SDS011;9381;54.244;10.074;2023-02-15T00:13:06;78.25;;;35.17;;
18503;SDS011;9381;54.244;10.074;2023-02-15T00:18:06;89.47;;;38.43;;
18503;SDS011;9381;54.244;10.074;2023-02-15T00:23:07;85.67;;;38.63;;
18503;SDS011;9381;54.244;10.074;2023-02-15T00:28:07;84.50;;;38.30;;
18503;SDS011;9381;54.244;10.074;2023-02-15T00:33:08;74.00;;;35.40;;
18503;SDS011;9381;54.244;10.074;2023-02-15T00:38:08;144.50;;;38.73;;
18503;SDS011;9381;54.244;10.074;2023-02-15T00:43:08;137.67;;;38.00;;
18503;SDS011;9381;54.244;10.074;2023-02-15T00:48:09;96.15;;;35.88;;
18503;SDS011;9381;54.244;10.074;2023-02-15T00:53:09;104.97;;;34.40;;
18503;SDS011;9381;54.244;10.074;2023-02-15T00:58:10;131.70;;;33.47;;
18503;SDS011;9381;54.244;10.074;2023-02-15T01:03:11;115.37;;;31.47;;
18503;SDS011;9381;54.244;10.074;2023-02-15T01:08:12;107.80;;;30.47;;
18503;SDS011;9381;54.244;10.074;2023-02-15T01:13:13;120.32;;;29.75;;
18503;SDS011;9381;54.244;10.074;2023-02-15T01:18:15;123.63;;;27.83;;
18503;SDS011;9381;54.244;10.074;2023-02-15T01:23:17;47.77;;;25.63;;
18503;SDS011;9381;54.244;10.074;2023-02-15T01:28:17;62.57;;;25.87;;
18503;SDS011;9381;54.244;10.074;2023-02-15T01:33:17;95.40;;;26.00;;
18503;SDS011;9381;54.244;10.074;2023-02-15T01:38:18;150.00;;;29.90;;
18503;SDS011;9381;54.244;10.074;2023-02-15T01:43:18;47.53;;;24.37;;
18503;SDS011;9381;54.244;10.074;2023-02-15T01:48:20;115.77;;;27.10;;
18503;SDS011;9381;54.244;10.074;2023-02-15T01:53:27;60.13;;;24.83;;
18503;SDS011;9381;54.244;10.074;2023-02-15T01:58:32;44.03;;;23.67;;
18503;SDS011;9381;54.244;10.074;2023-02-15T02:09:01;62.77;;;25.00;;
18503;SDS011;9381;54.244;10.074;2023-02-15T02:14:02;166.60;;;28.67;;
18503;SDS011;9381;54.244;10.074;2023-02-15T02:24:47;148.40;;;30.30;;
18503;SDS011;9381;54.244;10.074;2023-02-15T02:30:16;141.30;;;28.83;;
18503;SDS011;9381;54.244;10.074;2023-02-15T02:35:38;108.80;;;27.97;;
18503;SDS011;9381;54.244;10.074;2023-02-15T02:46:20;89.33;;;24.67;;
18503;SDS011;9381;54.244;10.074;2023-02-15T02:51:24;53.17;;;24.37;;
18503;SDS011;9381;54.244;10.074;2023-02-15T02:56:29;78.43;;;24.30;;
18503;SDS011;9381;54.244;10.074;2023-02-15T03:01:39;80.53;;;25.40;;
18503;SDS011;9381;54.244;10.074;2023-02-15T03:06:46;124.80;;;25.90;;
18503;SDS011;9381;54.244;10.074;2023-02-15T03:11:51;89.87;;;25.33;;
18503;SDS011;9381;54.244;10.074;2023-02-15T03:16:51;90.28;;;24.50;;
18503;SDS011;9381;54.244;10.074;2023-02-15T03:21:56;95.67;;;25.17;;
18503;SDS011;9381;54.244;10.074;2023-02-15T03:27:10;75.20;;;25.50;;
18503;SDS011;9381;54.244;10.074;2023-02-15T03:32:17;72.67;;;25.80;;
18503;SDS011;9381;54.244;10.074;2023-02-15T03:37:22;143.00;;;27.23;;
18503;SDS011;9381;54.244;10.074;2023-02-15T03:42:43;38.80;;;21.60;;
18503;SDS011;9381;54.244;10.074;2023-02-15T03:47:46;65.47;;;23.83;;
18503;SDS011;9381;54.244;10.074;2023-02-15T03:52:48;193.33;;;31.10;;
18503;SDS011;9381;54.244;10.074;2023-02-15T03:57:49;153.60;;;27.60;;
18503;SDS011;9381;54.244;10.074;2023-02-15T04:08:14;124.77;;;27.27;;
18503;SDS011;9381;54.244;10.074;2023-02-15T04:13:14;171.20;;;29.27;;
18503;SDS011;9381;54.244;10.074;2023-02-15T04:18:15;199.63;;;29.25;;
18503;SDS011;9381;54.244;10.074;2023-02-15T04:23:15;142.20;;;27.10;;
18503;SDS011;9381;54.244;10.074;2023-02-15T04:28:34;275.80;;;33.40;;
18503;SDS011;9381;54.244;10.074;2023-02-15T04:33:34;158.02;;;27.88;;
18503;SDS011;9381;54.244;10.074;2023-02-15T04:38:35;115.47;;;26.27;;
18503;SDS011;9381;54.244;10.074;2023-02-15T04:43:36;173.37;;;29.17;;
18503;SDS011;9381;54.244;10.074;2023-02-15T04:48:36;157.88;;;29.15;;
18503;SDS011;9381;54.244;10.074;2023-02-15T04:53:36;101.13;;;24.87;;
18503;SDS011;9381;54.244;10.074;2023-02-15T04:58:37;107.50;;;24.90;;
18503;SDS011;9381;54.244;10.074;2023-02-15T05:03:42;133.43;;;27.00;;
18503;SDS011;9381;54.244;10.074;2023-02-15T05:08:42;153.20;;;26.93;;
18503;SDS011;9381;54.244;10.074;2023-02-15T05:13:42;113.68;;;26.40;;
18503;SDS011;9381;54.244;10.074;2023-02-15T05:18:42;55.08;;;21.98;;
18503;SDS011;9381;54.244;10.074;2023-02-15T05:23:43;133.25;;;30.25;;
18503;SDS011;9381;54.244;10.074;2023-02-15T05:28:43;75.20;;;23.70;;
18503;SDS011;9381;54.244;10.074;2023-02-15T05:33:43;37.92;;;21.98;;
18503;SDS011;9381;54.244;10.074;2023-02-15T05:38:44;131.90;;;27.00;;
18503;SDS011;9381;54.244;10.074;2023-02-15T05:43:44;88.03;;;24.93;;
18503;SDS011;9381;54.244;10.074;2023-02-15T05:48:44;152.45;;;29.50;;
18503;SDS011;9381;54.244;10.074;2023-02-15T05:53:45;125.22;;;27.13;;
18503;SDS011;9381;54.244;10.074;2023-02-15T05:58:45;243.68;;;34.28;;
18503;SDS011;9381;54.244;10.074;2023-02-15T06:03:45;113.93;;;26.73;;
18503;SDS011;9381;54.244;10.074;2023-02-15T06:08:46;91.83;;;26.23;;
18503;SDS011;9381;54.244;10.074;2023-02-15T06:13:46;205.13;;;30.17;;
18503;SDS011;9381;54.244;10.074;2023-02-15T06:18:46;126.75;;;26.17;;
18503;SDS011;9381;54.244;10.074;2023-02-15T06:23:47;240.70;;;32.83;;
18503;SDS011;9381;54.244;10.074;2023-02-15T06:28:47;233.73;;;30.98;;
18503;SDS011;9381;54.244;10.074;2023-02-15T06:33:47;218.57;;;30.48;;
18503;SDS011;9381;54.244;10.074;2023-02-15T06:38:47;346.27;;;38.20;;
18503;SDS011;9381;54.244;10.074;2023-02-15T06:43:48;74.75;;;23.42;;
18503;SDS011;9381;54.244;10.074;2023-02-15T06:48:48;94.47;;;25.00;;
18503;SDS011;9381;54.244;10.074;2023-02-15T06:53:49;255.02;;;31.63;;
18503;SDS011;9381;54.244;10.074;2023-02-15T06:58:49;87.87;;;23.80;;
18503;SDS011;9381;54.244;10.074;2023-02-15T07:03:49;143.83;;;27.37;;
18503;SDS011;9381;54.244;10.074;2023-02-15T07:08:50;118.65;;;26.35;;
18503;SDS011;9381;54.244;10.074;2023-02-15T07:13:50;181.83;;;28.47;;
18503;SDS011;9381;54.244;10.074;2023-02-15T07:18:52;206.47;;;30.60;;
18503;SDS011;9381;54.244;10.074;2023-02-15T07:23:55;61.33;;;23.67;;
18503;SDS011;9381;54.244;10.074;2023-02-15T07:28:56;50.50;;;22.47;;
18503;SDS011;9381;54.244;10.074;2023-02-15T07:33:57;198.60;;;27.02;;
18503;SDS011;9381;54.244;10.074;2023-02-15T07:38:57;77.50;;;23.20;;
18503;SDS011;9381;54.244;10.074;2023-02-15T07:43:57;78.97;;;24.40;;
18503;SDS011;9381;54.244;10.074;2023-02-15T07:48:58;122.53;;;26.27;;
18503;SDS011;9381;54.244;10.074;2023-02-15T07:53:58;53.50;;;21.80;;
18503;SDS011;9381;54.244;10.074;2023-02-15T07:58:59;137.80;;;26.37;;
18503;SDS011;9381;54.244;10.074;2023-02-15T08:04:04;150.50;;;28.03;;
18503;SDS011;9381;54.244;10.074;2023-02-15T08:09:07;232.23;;;31.70;;
18503;SDS011;9381;54.244;10.074;2023-02-15T08:14:12;122.93;;;26.33;;
18503;SDS011;9381;54.244;10.074;2023-02-15T08:19:28;172.00;;;30.03;;
18503;SDS011;9381;54.244;10.074;2023-02-15T08:24:30;108.93;;;25.87;;
18503;SDS011;9381;54.244;10.074;2023-02-15T08:29:33;62.67;;;23.30;;
18503;SDS011;9381;54.244;10.074;2023-02-15T08:34:36;178.63;;;29.23;;
18503;SDS011;9381;54.244;10.074;2023-02-15T08:39:39;67.10;;;23.93;;
18503;SDS011;9381;54.244;10.074;2023-02-15T08:44:39;92.97;;;25.33;;
18503;SDS011;9381;54.244;10.074;2023-02-15T08:49:39;270.63;;;34.90;;
18503;SDS011;9381;54.244;10.074;2023-02-15T08:54:40;55.93;;;25.10;;
18503;SDS011;9381;54.244;10.074;2023-02-15T08:59:40;156.32;;;30.63;;
18503;SDS011;9381;54.244;10.074;2023-02-15T09:04:40;207.97;;;32.00;;
18503;SDS011;9381;54.244;10.074;2023-02-15T09:09:41;129.07;;;27.93;;
18503;SDS011;9381;54.244;10.074;2023-02-15T09:14:41;170.93;;;32.10;;
18503;SDS011;9381;54.244;10.074;2023-02-15T09:19:42;68.00;;;27.10;;
18503;SDS011;9381;54.244;10.074;2023-02-15T09:24:42;195.77;;;32.03;;
18503;SDS011;9381;54.244;10.074;2023-02-15T09:29:42;194.37;;;33.83;;
18503;SDS011;9381;54.244;10.074;2023-02-15T09:34:43;175.55;;;32.30;;
18503;SDS011;9381;54.244;10.074;2023-02-15T09:39:43;240.45;;;36.78;;
18503;SDS011;9381;54.244;10.074;2023-02-15T09:56:19;193.73;;;35.93;;
18503;SDS011;9381;54.244;10.074;2023-02-15T10:01:44;256.80;;;38.57;;
18503;SDS011;9381;54.244;10.074;2023-02-15T10:18:00;217.83;;;38.77;;
18503;SDS011;9381;54.244;10.074;2023-02-15T10:34:05;188.47;;;39.30;;
18503;SDS011;9381;54.244;10.074;2023-02-15T11:06:05;271.97;;;46.57;;
18503;SDS011;9381;54.244;10.074;2023-02-15T11:11:12;224.40;;;44.77;;
18503;SDS011;9381;54.244;10.074;2023-02-15T11:16:31;192.83;;;43.77;;
18503;SDS011;9381;54.244;10.074;2023-02-15T11:21:38;220.07;;;43.80;;
18503;SDS011;9381;54.244;10.074;2023-02-15T11:26:43;150.17;;;43.37;;
18503;SDS011;9381;54.244;10.074;2023-02-15T11:31:46;215.77;;;44.03;;
18503;SDS011;9381;54.244;10.074;2023-02-15T11:36:50;213.63;;;46.33;;
18503;SDS011;9381;54.244;10.074;2023-02-15T11:41:56;207.20;;;44.70;;
18503;SDS011;9381;54.244;10.074;2023-02-15T11:47:00;184.90;;;43.40;;
18503;SDS011;9381;54.244;10.074;2023-02-15T11:52:02;153.87;;;43.30;;
18503;SDS011;9381;54.244;10.074;2023-02-15T12:02:37;75.37;;;39.27;;
18503;SDS011;9381;54.244;10.074;2023-02-15T12:07:42;151.97;;;44.57;;
18503;SDS011;9381;54.244;10.074;2023-02-15T12:12:46;124.10;;;43.63;;
18503;SDS011;9381;54.244;10.074;2023-02-15T12:17:53;118.07;;;47.67;;
18503;SDS011;9381;54.244;10.074;2023-02-15T12:22:59;84.20;;;42.43;;
18503;SDS011;9381;54.244;10.074;2023-02-15T12:28:02;157.23;;;46.03;;
18503;SDS011;9381;54.244;10.074;2023-02-15T12:43:30;175.27;;;49.23;;
18503;SDS011;9381;54.244;10.074;2023-02-15T12:48:33;107.17;;;45.23;;
18503;SDS011;9381;54.244;10.074;2023-02-15T12:53:34;110.50;;;46.83;;
18503;SDS011;9381;54.244;10.074;2023-02-15T12:58:37;143.40;;;47.97;;
18503;SDS011;9381;54.244;10.074;2023-02-15T13:08:56;133.73;;;49.83;;
18503;SDS011;9381;54.244;10.074;2023-02-15T13:14:02;134.67;;;50.93;;
18503;SDS011;9381;54.244;10.074;2023-02-15T13:19:16;127.43;;;53.97;;
18503;SDS011;9381;54.244;10.074;2023-02-15T13:29:34;130.63;;;53.07;;
18503;SDS011;9381;54.244;10.074;2023-02-15T13:34:37;134.33;;;51.50;;
18503;SDS011;9381;54.244;10.074;2023-02-15T13:39:44;124.57;;;54.33;;
18503;SDS011;9381;54.244;10.074;2023-02-15T13:55:26;139.50;;;51.23;;
18503;SDS011;9381;54.244;10.074;2023-02-15T14:11:02;136.40;;;52.70;;
18503;SDS011;9381;54.244;10.074;2023-02-15T14:21:32;139.73;;;56.47;;
18503;SDS011;9381;54.244;10.074;2023-02-15T14:31:59;122.43;;;50.80;;
18503;SDS011;9381;54.244;10.074;2023-02-15T14:37:04;143.20;;;54.80;;
18503;SDS011;9381;54.244;10.074;2023-02-15T14:42:07;127.03;;;55.57;;
18503;SDS011;9381;54.244;10.074;2023-02-15T14:47:22;141.20;;;53.93;;
18503;SDS011;9381;54.244;10.074;2023-02-15T14:52:29;203.20;;;55.07;;
18503;SDS011;9381;54.244;10.074;2023-02-15T14:57:30;182.67;;;54.90;;
18503;SDS011;9381;54.244;10.074;2023-02-15T15:07:54;158.80;;;57.57;;
18503;SDS011;9381;54.244;10.074;2023-02-15T15:12:58;132.33;;;61.00;;
18503;SDS011;9381;54.244;10.074;2023-02-15T15:18:46;186.30;;;63.43;;
18503;SDS011;9381;54.244;10.074;2023-02-15T15:23:47;156.53;;;62.23;;
18503;SDS011;9381;54.244;10.074;2023-02-15T15:50:28;148.13;;;66.00;;
18503;SDS011;9381;54.244;10.074;2023-02-15T15:55:29;171.23;;;65.80;;
18503;SDS011;9381;54.244;10.074;2023-02-15T16:00:39;232.37;;;71.03;;
18503;SDS011;9381;54.244;10.074;2023-02-15T16:05:46;215.77;;;70.60;;
18503;SDS011;9381;54.244;10.074;2023-02-15T16:10:52;307.73;;;78.20;;
18503;SDS011;9381;54.244;10.074;2023-02-15T16:15:53;194.13;;;71.23;;
18503;SDS011;9381;54.244;10.074;2023-02-15T16:21:01;192.97;;;72.10;;
18503;SDS011;9381;54.244;10.074;2023-02-15T16:31:23;195.07;;;74.63;;
18503;SDS011;9381;54.244;10.074;2023-02-15T16:36:24;233.50;;;75.60;;
18503;SDS011;9381;54.244;10.074;2023-02-15T16:41:29;269.03;;;77.13;;
18503;SDS011;9381;54.244;10.074;2023-02-15T16:51:36;212.80;;;75.27;;
18503;SDS011;9381;54.244;10.074;2023-02-15T16:56:36;235.37;;;78.97;;
18503;SDS011;9381;54.244;10.074;2023-02-15T17:01:37;248.03;;;78.60;;
18503;SDS011;9381;54.244;10.074;2023-02-15T17:06:37;321.40;;;85.53;;
18503;SDS011;9381;54.244;10.074;2023-02-15T17:11:42;412.90;;;88.53;;
18503;SDS011;9381;54.244;10.074;2023-02-15T17:16:52;356.30;;;89.00;;
18503;SDS011;9381;54.244;10.074;2023-02-15T17:22:02;330.67;;;84.63;;
18503;SDS011;9381;54.244;10.074;2023-02-15T17:27:06;320.97;;;83.10;;
18503;SDS011;9381;54.244;10.074;2023-02-15T17:32:19;394.63;;;88.07;;
18503;SDS011;9381;54.244;10.074;2023-02-15T17:37:23;174.63;;;71.97;;
18503;SDS011;9381;54.244;10.074;2023-02-15T17:42:24;283.40;;;83.20;;
18503;SDS011;9381;54.244;10.074;2023-02-15T17:47:25;293.37;;;81.17;;
18503;SDS011;9381;54.244;10.074;2023-02-15T17:52:27;245.90;;;78.97;;
18503;SDS011;9381;54.244;10.074;2023-02-15T17:57:29;186.77;;;77.43;;
18503;SDS011;9381;54.244;10.074;2023-02-15T18:02:31;304.10;;;85.20;;
18503;SDS011;9381;54.244;10.074;2023-02-15T18:07:52;223.43;;;75.97;;
18503;SDS011;9381;54.244;10.074;2023-02-15T18:13:11;312.90;;;82.57;;
18503;SDS011;9381;54.244;10.074;2023-02-15T18:18:12;299.20;;;80.90;;
18503;SDS011;9381;54.244;10.074;2023-02-15T18:23:15;310.00;;;82.27;;
18503;SDS011;9381;54.244;10.074;2023-02-15T18:28:16;178.27;;;69.07;;
18503;SDS011;9381;54.244;10.074;2023-02-15T18:33:33;379.03;;;82.07;;
18503;SDS011;9381;54.244;10.074;2023-02-15T18:38:35;222.63;;;72.50;;
18503;SDS011;9381;54.244;10.074;2023-02-15T18:43:35;218.70;;;67.25;;
18503;SDS011;9381;54.244;10.074;2023-02-15T18:48:36;401.60;;;80.67;;
18503;SDS011;9381;54.244;10.074;2023-02-15T18:53:36;264.40;;;72.75;;
18503;SDS011;9381;54.244;10.074;2023-02-15T18:58:36;370.52;;;75.65;;
18503;SDS011;9381;54.244;10.074;2023-02-15T19:03:36;288.00;;;73.15;;
18503;SDS011;9381;54.244;10.074;2023-02-15T19:08:37;414.03;;;76.20;;
18503;SDS011;9381;54.244;10.074;2023-02-15T19:13:37;326.57;;;73.00;;
18503;SDS011;9381;54.244;10.074;2023-02-15T19:18:38;200.70;;;64.40;;
18503;SDS011;9381;54.244;10.074;2023-02-15T19:23:38;263.83;;;70.23;;
18503;SDS011;9381;54.244;10.074;2023-02-15T19:28:39;319.60;;;72.47;;
18503;SDS011;9381;54.244;10.074;2023-02-15T19:33:39;336.93;;;71.67;;
18503;SDS011;9381;54.244;10.074;2023-02-15T19:38:40;324.50;;;72.97;;
18503;SDS011;9381;54.244;10.074;2023-02-15T19:43:40;206.80;;;63.57;;
18503;SDS011;9381;54.244;10.074;2023-02-15T19:48:41;324.83;;;71.10;;
18503;SDS011;9381;54.244;10.074;2023-02-15T19:53:41;261.73;;;61.90;;
18503;SDS011;9381;54.244;10.074;2023-02-15T19:58:42;299.13;;;65.90;;
18503;SDS011;9381;54.244;10.074;2023-02-15T20:03:42;207.23;;;58.13;;
18503;SDS011;9381;54.244;10.074;2023-02-15T20:08:43;287.33;;;61.00;;
18503;SDS011;9381;54.244;10.074;2023-02-15T20:13:44;272.63;;;58.10;;
18503;SDS011;9381;54.244;10.074;2023-02-15T20:18:44;171.07;;;52.07;;
18503;SDS011;9381;54.244;10.074;2023-02-15T20:23:45;175.40;;;54.47;;
18503;SDS011;9381;54.244;10.074;2023-02-15T20:28:46;224.87;;;56.90;;
18503;SDS011;9381;54.244;10.074;2023-02-15T20:33:47;222.57;;;55.03;;
18503;SDS011;9381;54.244;10.074;2023-02-15T20:38:48;277.33;;;58.57;;
18503;SDS011;9381;54.244;10.074;2023-02-15T20:43:48;151.90;;;47.97;;
18503;SDS011;9381;54.244;10.074;2023-02-15T20:48:49;101.73;;;44.60;;
18503;SDS011;9381;54.244;10.074;2023-02-15T20:53:49;183.93;;;48.43;;
18503;SDS011;9381;54.244;10.074;2023-02-15T20:58:50;211.27;;;48.23;;
18503;SDS011;9381;54.244;10.074;2023-02-15T21:03:51;90.23;;;41.97;;
18503;SDS011;9381;54.244;10.074;2023-02-15T21:08:52;211.47;;;49.80;;
18503;SDS011;9381;54.244;10.074;2023-02-15T21:13:53;189.13;;;50.33;;
18503;SDS011;9381;54.244;10.074;2023-02-15T21:18:53;154.23;;;45.83;;
18503;SDS011;9381;54.244;10.074;2023-02-15T21:23:53;186.60;;;48.40;;
18503;SDS011;9381;54.244;10.074;2023-02-15T21:28:54;146.33;;;45.43;;
18503;SDS011;9381;54.244;10.074;2023-02-15T21:33:55;142.03;;;43.90;;
18503;SDS011;9381;54.244;10.074;2023-02-15T21:38:56;105.50;;;42.33;;
18503;SDS011;9381;54.244;10.074;2023-02-15T21:44:00;209.80;;;46.13;;
18503;SDS011;9381;54.244;10.074;2023-02-15T21:49:19;126.13;;;41.97;;
18503;SDS011;9381;54.244;10.074;2023-02-15T21:54:20;114.13;;;40.70;;
18503;SDS011;9381;54.244;10.074;2023-02-15T21:59:20;86.13;;;38.30;;
18503;SDS011;9381;54.244;10.074;2023-02-15T22:04:25;88.43;;;39.20;;
18503;SDS011;9381;54.244;10.074;2023-02-15T22:09:27;70.63;;;38.47;;
18503;SDS011;9381;54.244;10.074;2023-02-15T22:19:40;67.43;;;39.17;;
18503;SDS011;9381;54.244;10.074;2023-02-15T22:24:42;70.87;;;38.27;;
18503;SDS011;9381;54.244;10.074;2023-02-15T22:29:43;67.63;;;39.50;;
18503;SDS011;9381;54.244;10.074;2023-02-15T22:34:44;66.53;;;37.80;;
18503;SDS011;9381;54.244;10.074;2023-02-15T22:39:45;70.97;;;40.37;;
18503;SDS011;9381;54.244;10.074;2023-02-15T22:44:45;65.60;;;37.50;;
18503;SDS011;9381;54.244;10.074;2023-02-15T22:49:47;73.00;;;38.93;;
18503;SDS011;9381;54.244;10.074;2023-02-15T22:54:47;69.13;;;39.10;;
18503;SDS011;9381;54.244;10.074;2023-02-15T22:59:48;70.80;;;39.95;;
18503;SDS011;9381;54.244;10.074;2023-02-15T23:04:48;75.57;;;40.80;;
18503;SDS011;9381;54.244;10.074;2023-02-15T23:09:49;78.77;;;42.53;;
18503;SDS011;9381;54.244;10.074;2023-02-15T23:14:50;79.87;;;42.70;;
18503;SDS011;9381;54.244;10.074;2023-02-15T23:19:51;78.03;;;42.07;;
18503;SDS011;9381;54.244;10.074;2023-02-15T23:24:51;78.90;;;41.53;;
18503;SDS011;9381;54.244;10.074;2023-02-15T23:29:52;78.10;;;42.13;;
18503;SDS011;9381;54.244;10.074;2023-02-15T23:34:52;80.67;;;42.53;;
18503;SDS011;9381;54.244;10.074;2023-02-15T23:39:53;73.80;;;41.87;;
18503;SDS011;9381;54.244;10.074;2023-02-15T23:45:17;80.90;;;42.13;;
18503;SDS011;9381;54.244;10.074;2023-02-15T23:50:23;81.60;;;42.90;;
18503;SDS011;9381;54.244;10.074;2023-02-15T23:55:28;85.30;;;43.90;;
